createdAt,value
2023-01-08T00:01:16.583Z,72.23
2023-01-08T00:03:45.092Z,72.08
2023-01-08T00:06:15.591Z,71.92
2023-01-08T00:08:42.827Z,72.01
2023-01-08T00:11:10.608Z,71.94
2023-01-08T00:13:37.935Z,71.91
2023-01-08T00:16:06.348Z,72.10
2023-01-08T00:18:35.522Z,71.97
2023-01-08T00:21:14.279Z,71.85
2023-01-08T00:23:44.443Z,72.12
2023-01-08T00:26:11.860Z,72.16
2023-01-08T00:28:39.213Z,72.11
2023-01-08T00:31:11.183Z,72.18
2023-01-08T00:33:40.953Z,72.08
2023-01-08T00:36:12.342Z,72.07
2023-01-08T00:38:39.275Z,72.00
2023-01-08T00:41:06.616Z,71.96
2023-01-08T00:43:33.544Z,72.23
2023-01-08T00:46:08.332Z,72.18
2023-01-08T00:48:38.832Z,72.28
2023-01-08T00:51:07.457Z,72.38
2023-01-08T00:53:34.489Z,72.46
2023-01-08T00:56:07.265Z,72.60
2023-01-08T00:58:34.716Z,72.48
2023-01-08T01:01:12.032Z,72.56
2023-01-08T01:03:39.157Z,72.83
2023-01-08T01:06:08.693Z,72.85
2023-01-08T01:08:35.660Z,73.06
2023-01-08T01:11:12.267Z,72.96
2023-01-08T01:13:39.173Z,73.30
2023-01-08T01:16:06.300Z,73.25
2023-01-08T01:18:33.484Z,73.47
2023-01-08T01:21:00.437Z,73.38
2023-01-08T01:23:27.519Z,73.54
2023-01-08T01:25:54.794Z,73.91
2023-01-08T01:28:22.076Z,74.17
2023-01-08T01:30:54.999Z,75.02
2023-01-08T01:33:21.987Z,75.05
2023-01-08T01:35:49.183Z,75.27
2023-01-08T01:38:16.234Z,75.88
2023-01-08T01:40:45.871Z,76.05
2023-01-08T01:43:15.950Z,76.40
2023-01-08T01:45:43.001Z,77.09
2023-01-08T01:48:12.111Z,77.64
2023-01-08T01:50:49.129Z,78.08
2023-01-08T01:53:23.000Z,78.52
2023-01-08T01:55:50.948Z,78.46
2023-01-08T01:58:21.908Z,78.77
2023-01-08T02:00:50.134Z,79.20
2023-01-08T02:03:21.847Z,79.66
2023-01-08T02:06:00.952Z,80.10
2023-01-08T02:08:45.191Z,80.48
2023-01-08T02:11:17.568Z,80.86
2023-01-08T02:13:51.840Z,81.02
2023-01-08T02:16:47.027Z,81.27
2023-01-08T02:19:31.005Z,81.46
2023-01-08T02:22:06.288Z,81.46
2023-01-08T02:24:54.449Z,81.50
2023-01-08T02:27:24.534Z,81.54
2023-01-08T02:29:53.773Z,81.16
2023-01-08T02:32:28.329Z,81.23
2023-01-08T02:34:55.295Z,80.82
2023-01-08T02:37:22.392Z,80.88
2023-01-08T02:40:07.936Z,80.95
2023-01-08T02:42:51.731Z,80.97
2023-01-08T02:45:26.932Z,80.80
2023-01-08T02:48:06.206Z,80.98
2023-01-08T02:51:09.610Z,80.91
2023-01-08T02:53:42.417Z,81.05
2023-01-08T02:56:12.815Z,80.83
2023-01-08T02:58:40.829Z,81.15
2023-01-08T03:01:10.213Z,81.63
2023-01-08T03:03:39.763Z,81.62
2023-01-08T03:06:07.750Z,82.21
2023-01-08T03:12:00.994Z,82.75
2023-01-08T03:14:32.903Z,83.00
2023-01-08T03:17:10.394Z,83.25
2023-01-08T03:20:13.416Z,83.55
2023-01-08T03:22:45.527Z,83.84
2023-01-08T03:25:15.050Z,84.09
2023-01-08T03:27:46.113Z,84.70
2023-01-08T03:30:16.846Z,84.65
2023-01-08T03:32:44.949Z,85.00
2023-01-08T03:35:14.420Z,85.20
2023-01-08T03:37:46.192Z,85.51
2023-01-08T03:40:19.611Z,85.52
2023-01-08T03:42:53.998Z,85.69
2023-01-08T03:45:22.955Z,86.00
2023-01-08T03:47:50.567Z,86.04
2023-01-08T03:50:21.953Z,86.28
2023-01-08T03:52:48.856Z,86.20
2023-01-08T03:55:17.878Z,86.32
2023-01-08T03:57:44.755Z,86.52
2023-01-08T04:00:12.741Z,86.95
2023-01-08T04:02:42.022Z,86.69
2023-01-08T04:05:09.249Z,86.61
2023-01-08T04:07:35.997Z,86.27
2023-01-08T04:13:17.411Z,86.37
2023-01-08T04:15:51.090Z,86.49
2023-01-08T04:18:18.666Z,86.36
2023-01-08T04:20:46.650Z,86.16
2023-01-08T04:23:14.023Z,86.08
2023-01-08T04:25:41.098Z,86.02
2023-01-08T04:28:12.388Z,86.09
2023-01-08T04:30:41.433Z,85.56
2023-01-08T04:33:13.739Z,85.06
2023-01-08T04:35:41.590Z,84.72
2023-01-08T04:38:10.360Z,84.40
2023-01-08T04:40:38.471Z,83.89
2023-01-08T04:43:05.543Z,83.76
2023-01-08T04:45:34.616Z,83.69
2023-01-08T04:48:01.417Z,83.85
2023-01-08T04:50:28.151Z,83.99
2023-01-08T04:52:58.037Z,84.56
2023-01-08T04:55:27.799Z,85.09
2023-01-08T04:57:55.200Z,85.71
2023-01-08T05:00:22.330Z,86.19
2023-01-08T05:02:49.368Z,86.76
2023-01-08T05:05:16.487Z,86.67
2023-01-08T05:07:45.902Z,86.83
2023-01-08T05:10:12.574Z,87.18
2023-01-08T05:12:39.490Z,87.06
2023-01-08T05:15:09.420Z,87.01
2023-01-08T05:17:36.583Z,87.15
2023-01-08T05:20:03.701Z,87.32
2023-01-08T05:22:32.747Z,87.62
2023-01-08T05:31:23.080Z,87.86
2023-01-08T05:33:50.049Z,87.86
2023-01-08T05:36:17.239Z,88.45
2023-01-08T05:38:44.267Z,88.39
2023-01-08T05:41:11.376Z,88.31
2023-01-08T05:43:38.540Z,88.37
2023-01-08T05:46:06.289Z,88.31
2023-01-08T05:48:34.925Z,88.61
2023-01-08T05:51:05.270Z,88.86
2023-01-08T05:53:33.001Z,88.96
2023-01-08T05:56:01.799Z,89.00
2023-01-08T05:58:28.959Z,88.81
2023-01-08T06:01:02.308Z,89.25
2023-01-08T06:03:29.185Z,89.48
2023-01-08T06:06:02.901Z,89.32
2023-01-08T06:30:13.935Z,89.48
2023-01-08T06:52:24.341Z,89.67
2023-01-08T06:54:51.288Z,89.52
2023-01-08T06:57:22.576Z,89.44
2023-01-08T06:59:49.679Z,89.51
2023-01-08T07:02:18.022Z,89.48
2023-01-08T07:04:45.116Z,89.19
2023-01-08T07:07:14.212Z,89.57
2023-01-08T07:09:42.136Z,89.51
2023-01-08T07:12:14.569Z,89.43
2023-01-08T07:14:44.222Z,89.66
2023-01-08T07:17:11.426Z,89.67
2023-01-08T07:19:38.498Z,89.70
2023-01-08T07:22:05.340Z,89.71
2023-01-08T07:24:34.173Z,89.75
2023-01-08T07:27:18.111Z,89.89
2023-01-08T07:29:49.317Z,90.12
2023-01-08T07:32:16.281Z,89.97
2023-01-08T07:34:43.229Z,89.74
2023-01-08T07:37:10.246Z,89.96
2023-01-08T07:39:37.005Z,89.72
2023-01-08T07:42:04.144Z,89.86
2023-01-08T07:44:31.069Z,89.96
2023-01-08T07:46:58.161Z,89.93
2023-01-08T07:49:24.984Z,90.19
2023-01-08T07:51:53.995Z,90.12
2023-01-08T07:54:20.663Z,90.31
2023-01-08T07:56:47.140Z,90.14
2023-01-08T07:59:13.567Z,90.03
2023-01-08T08:01:40.117Z,90.09
2023-01-08T08:04:06.643Z,89.97
2023-01-08T08:06:33.055Z,89.85
2023-01-08T08:08:59.945Z,89.76
2023-01-08T08:11:26.415Z,89.47
2023-01-08T08:13:54.710Z,89.68
2023-01-08T08:16:22.533Z,89.68
2023-01-08T08:18:49.000Z,89.61
2023-01-08T08:21:15.775Z,89.76
2023-01-08T08:23:42.272Z,89.89
2023-01-08T08:26:08.749Z,89.93
2023-01-08T08:28:35.191Z,89.83
2023-01-08T08:31:01.617Z,90.08
2023-01-08T08:33:28.178Z,90.09
2023-01-08T08:35:54.624Z,90.16
2023-01-08T08:38:23.233Z,90.31
2023-01-08T08:40:50.411Z,90.48
2023-01-08T08:43:16.788Z,90.39
2023-01-08T08:45:43.487Z,90.24
2023-01-08T08:48:11.164Z,90.08
2023-01-08T08:50:38.477Z,90.18
2023-01-08T08:53:06.100Z,90.37
2023-01-08T08:55:33.197Z,90.56
2023-01-08T08:58:05.315Z,90.60
2023-01-08T09:00:32.166Z,90.69
2023-01-08T09:02:58.707Z,90.64
2023-01-08T09:05:25.282Z,90.89
2023-01-08T09:07:51.778Z,90.75
2023-01-08T09:10:18.184Z,90.93
2023-01-08T09:12:44.603Z,90.88
2023-01-08T09:15:11.423Z,90.85
2023-01-08T09:17:38.268Z,90.94
2023-01-08T09:20:05.829Z,90.78
2023-01-08T09:22:32.330Z,90.83
2023-01-08T09:24:58.792Z,91.30
2023-01-08T09:27:25.225Z,91.15
2023-01-08T09:29:51.633Z,91.16
2023-01-08T09:32:18.037Z,91.13
2023-01-08T09:34:44.505Z,91.28
2023-01-08T09:37:10.938Z,90.97
2023-01-08T09:39:37.380Z,91.02
2023-01-08T09:42:05.010Z,91.13
2023-01-08T09:44:36.806Z,91.02
2023-01-08T09:47:03.372Z,91.23
2023-01-08T09:49:50.392Z,91.33
2023-01-08T09:52:16.944Z,91.01
2023-01-08T09:54:43.412Z,90.75
2023-01-08T09:57:13.894Z,90.54
2023-01-08T09:59:40.353Z,90.42
2023-01-08T10:02:22.133Z,90.09
2023-01-08T10:04:54.608Z,89.58
2023-01-08T10:07:22.813Z,89.23
2023-01-08T10:09:50.126Z,88.95
2023-01-08T10:12:25.100Z,88.64
2023-01-08T10:14:54.332Z,88.43
2023-01-08T10:17:25.380Z,88.39
2023-01-08T10:19:51.818Z,88.32
2023-01-08T10:22:24.420Z,88.17
2023-01-08T10:24:52.939Z,88.14
2023-01-08T10:27:22.666Z,88.24
2023-01-08T10:29:52.492Z,88.40
2023-01-08T10:32:28.886Z,88.61
2023-01-08T10:34:59.162Z,88.85
2023-01-08T10:37:32.534Z,89.05
2023-01-08T10:40:17.850Z,88.99
2023-01-08T10:42:44.351Z,89.22
2023-01-08T10:45:20.214Z,89.41
2023-01-08T10:47:48.217Z,89.43
2023-01-08T10:50:24.651Z,89.32
2023-01-08T10:52:53.756Z,89.26
2023-01-08T10:55:26.619Z,89.19
2023-01-08T10:57:55.542Z,89.41
2023-01-08T11:00:29.880Z,89.24
2023-01-08T11:03:01.987Z,89.34
2023-01-08T11:05:36.524Z,89.41
2023-01-08T11:08:06.230Z,89.13
2023-01-08T11:10:34.188Z,89.05
2023-01-08T11:13:08.932Z,88.81
2023-01-08T11:15:39.081Z,88.53
2023-01-08T11:18:25.857Z,88.53
2023-01-08T11:20:53.205Z,88.41
2023-01-08T11:23:27.545Z,88.54
2023-01-08T11:26:08.240Z,88.46
2023-01-08T11:28:58.469Z,88.19
2023-01-08T11:31:39.469Z,87.95
2023-01-08T11:34:15.409Z,87.68
2023-01-08T11:36:50.332Z,87.21
2023-01-08T11:39:17.775Z,87.19
2023-01-08T11:42:03.267Z,86.95
2023-01-08T11:45:05.828Z,87.05
2023-01-08T11:47:54.238Z,86.98
2023-01-08T11:50:27.878Z,87.01
2023-01-08T11:53:32.229Z,86.97
2023-01-08T11:56:17.348Z,87.01
2023-01-08T11:59:09.327Z,87.03
2023-01-08T12:02:17.750Z,86.88
2023-01-08T12:05:03.714Z,86.83
2023-01-08T12:07:43.124Z,86.65
2023-01-08T12:10:24.632Z,86.50
2023-01-08T12:13:16.978Z,86.50
2023-01-08T12:16:04.640Z,86.21
2023-01-08T12:18:35.903Z,86.39
2023-01-08T12:21:08.424Z,86.21
2023-01-08T12:24:04.063Z,86.25
2023-01-08T12:26:54.199Z,85.81
2023-01-08T12:29:33.736Z,85.59
2023-01-08T12:32:36.217Z,85.46
2023-01-08T12:35:23.055Z,85.22
2023-01-08T12:38:11.692Z,84.92
2023-01-08T12:40:49.089Z,84.80
2023-01-08T12:43:29.319Z,85.18
2023-01-08T12:45:57.040Z,85.34
2023-01-08T12:48:27.107Z,85.28
2023-01-08T12:51:27.540Z,84.96
2023-01-08T12:54:21.964Z,84.74
2023-01-08T12:56:53.800Z,84.44
2023-01-08T12:59:39.725Z,84.38
2023-01-08T13:02:33.900Z,84.33
2023-01-08T13:05:31.368Z,84.31
2023-01-08T13:08:00.532Z,84.13
2023-01-08T13:10:35.327Z,84.09
2023-01-08T13:13:02.033Z,84.06
2023-01-08T13:15:30.997Z,84.12
2023-01-08T13:18:02.982Z,83.83
2023-01-08T13:20:31.017Z,84.10
2023-01-08T13:23:02.727Z,83.77
2023-01-08T13:25:37.396Z,83.72
2023-01-08T13:28:25.815Z,83.68
2023-01-08T13:30:53.315Z,83.86
2023-01-08T13:33:35.081Z,84.04
2023-01-08T13:36:15.348Z,84.19
2023-01-08T13:38:42.757Z,84.52
2023-01-08T13:41:28.545Z,84.73
2023-01-08T13:44:05.100Z,84.86
2023-01-08T13:46:37.411Z,85.08
2023-01-08T13:49:20.967Z,85.18
2023-01-08T13:51:47.487Z,85.19
2023-01-08T13:54:14.679Z,85.18
2023-01-08T13:56:42.561Z,85.08
2023-01-08T13:59:42.329Z,84.79
2023-01-08T14:02:49.995Z,84.84
2023-01-08T14:05:24.597Z,84.42
2023-01-08T14:07:51.397Z,84.72
2023-01-08T14:10:18.139Z,84.45
2023-01-08T14:12:44.767Z,84.39
2023-01-08T14:15:23.569Z,84.59
2023-01-08T14:17:50.900Z,84.51
2023-01-08T14:20:24.772Z,84.59
2023-01-08T14:22:51.289Z,84.73
2023-01-08T14:25:19.765Z,85.25
2023-01-08T14:27:59.429Z,85.86
2023-01-08T14:30:26.096Z,85.86
2023-01-08T14:32:53.834Z,86.09
2023-01-08T14:35:27.287Z,86.04
2023-01-08T14:37:54.206Z,86.05
2023-01-08T14:40:29.569Z,85.96
2023-01-08T14:42:56.426Z,85.93
2023-01-08T14:45:25.901Z,85.88
2023-01-08T14:48:11.083Z,85.59
2023-01-08T14:50:39.768Z,85.39
2023-01-08T14:53:28.725Z,85.33
2023-01-08T14:55:56.698Z,85.23
2023-01-08T14:58:24.864Z,85.36
2023-01-08T15:00:54.289Z,85.53
2023-01-08T15:03:47.610Z,85.67
2023-01-08T15:06:31.832Z,85.77
2023-01-08T15:09:00.023Z,85.86
2023-01-08T15:11:31.835Z,85.83
2023-01-08T15:13:58.775Z,85.93
2023-01-08T15:16:42.449Z,85.67
2023-01-08T15:19:17.677Z,85.55
2023-01-08T15:21:49.178Z,85.45
2023-01-08T15:24:26.109Z,85.08
2023-01-08T15:26:53.076Z,84.97
2023-01-08T15:29:33.314Z,84.51
2023-01-08T15:32:12.150Z,84.85
2023-01-08T15:34:38.743Z,85.01
2023-01-08T15:37:05.137Z,85.14
2023-01-08T15:39:31.569Z,85.44
2023-01-08T15:42:19.954Z,85.35
2023-01-08T15:44:46.486Z,85.07
2023-01-08T15:47:12.895Z,85.00
2023-01-08T15:49:39.336Z,85.07
2023-01-08T15:52:05.735Z,85.17
2023-01-08T15:54:32.224Z,85.20
2023-01-08T15:56:58.704Z,85.06
2023-01-08T15:59:25.406Z,85.48
2023-01-08T16:01:51.975Z,85.47
